createdAt,value
2018-01-07T00:01:40.318Z,100530.08
2018-01-07T00:04:08.868Z,100534.23
2018-01-07T00:06:37.580Z,100529.18
2018-01-07T00:09:06.268Z,100534.47
2018-01-07T00:11:34.916Z,100539.50
2018-01-07T00:14:03.637Z,100539.77
2018-01-07T00:16:32.432Z,100540.91
2018-01-07T00:19:01.118Z,100543.48
2018-01-07T00:21:29.757Z,100550.18
2018-01-07T00:23:59.253Z,100552.75
2018-01-07T00:26:28.591Z,100551.99
2018-01-07T00:28:57.289Z,100552.30
2018-01-07T00:31:26.083Z,100560.89
2018-01-07T00:33:54.721Z,100555.98
2018-01-07T00:36:24.175Z,100562.19
2018-01-07T00:38:52.860Z,100566.72
2018-01-07T00:41:21.638Z,100568.70
2018-01-07T00:43:50.325Z,100572.30
2018-01-07T00:46:19.121Z,100576.94
2018-01-07T00:48:47.808Z,100573.13
2018-01-07T00:51:16.446Z,100569.73
2018-01-07T00:53:46.039Z,100575.34
2018-01-07T00:56:15.499Z,100578.28
2018-01-07T00:58:44.086Z,100573.75
2018-01-07T01:01:12.872Z,100572.55
2018-01-07T01:03:41.556Z,100572.53
2018-01-07T01:06:10.136Z,100585.92
2018-01-07T01:08:38.873Z,100591.98
2018-01-07T01:11:08.316Z,100590.15
2018-01-07T01:13:37.012Z,100593.02
2018-01-07T01:16:05.808Z,100595.73
2018-01-07T01:18:34.493Z,100593.94
2018-01-07T01:21:03.071Z,100601.07
2018-01-07T01:23:31.866Z,100597.20
2018-01-07T01:26:00.551Z,100583.00
2018-01-07T01:28:29.100Z,100578.71
2018-01-07T01:30:57.829Z,100573.56
2018-01-07T01:33:26.500Z,100583.98
2018-01-07T01:35:55.185Z,100577.21
2018-01-07T01:38:24.136Z,100568.22
2018-01-07T01:40:52.870Z,100568.80
2018-01-07T01:43:21.593Z,100572.55
2018-01-07T01:45:51.413Z,100564.41
2018-01-07T01:48:20.875Z,100565.87
2018-01-07T01:50:49.546Z,100568.08
2018-01-07T01:53:18.291Z,100574.11
2018-01-07T01:55:53.030Z,100576.27
2018-01-07T01:58:22.726Z,100575.92
2018-01-07T02:00:52.181Z,100577.39
2018-01-07T02:03:20.869Z,100579.11
2018-01-07T02:05:49.747Z,100584.16
2018-01-07T02:08:18.447Z,100580.34
2018-01-07T02:10:47.189Z,100574.41
2018-01-07T02:13:16.279Z,100573.48
2018-01-07T02:15:45.733Z,100583.08
2018-01-07T02:18:14.420Z,100579.63
2018-01-07T02:20:43.160Z,100569.07
2018-01-07T02:23:11.889Z,100578.86
2018-01-07T02:25:40.686Z,100572.30
2018-01-07T02:28:09.568Z,100575.91
2018-01-07T02:30:38.364Z,100565.67
2018-01-07T02:33:07.051Z,100567.52
2018-01-07T02:35:35.835Z,100569.37
2018-01-07T02:38:04.509Z,100566.58
2018-01-07T02:40:33.207Z,100565.69
2018-01-07T02:43:02.101Z,100566.69
2018-01-07T02:45:30.787Z,100569.52
2018-01-07T02:47:59.472Z,100588.67
2018-01-07T02:50:28.355Z,100582.52
2018-01-07T02:52:56.946Z,100581.91
2018-01-07T02:55:25.632Z,100581.64
2018-01-07T02:57:54.721Z,100587.20
2018-01-07T03:00:23.406Z,100587.81
2018-01-07T03:02:52.036Z,100593.06
2018-01-07T03:05:21.655Z,100595.10
2018-01-07T03:07:50.385Z,100606.74
2018-01-07T03:10:19.039Z,100601.89
2018-01-07T03:12:47.756Z,100594.84
2018-01-07T03:15:16.401Z,100603.36
2018-01-07T03:17:45.128Z,100606.66
2018-01-07T03:20:14.225Z,100609.32
2018-01-07T03:22:42.917Z,100608.99
2018-01-07T03:25:11.603Z,100608.62
2018-01-07T03:27:40.486Z,100612.30
2018-01-07T03:30:09.131Z,100610.07
2018-01-07T03:32:37.858Z,100612.19
2018-01-07T03:35:06.857Z,100616.48
2018-01-07T03:37:35.437Z,100616.37
2018-01-07T03:40:04.152Z,100610.62
2018-01-07T03:42:33.694Z,100611.06
2018-01-07T03:45:02.418Z,100623.20
2018-01-07T03:47:31.004Z,100627.08
2018-01-07T03:49:59.697Z,100621.45
2018-01-07T03:52:28.264Z,100624.23
2018-01-07T03:54:56.908Z,100624.81
2018-01-07T03:57:25.638Z,100630.30
2018-01-07T03:59:54.293Z,100641.32
2018-01-07T04:02:23.009Z,100636.91
2018-01-07T04:04:51.696Z,100636.05
2018-01-07T04:07:20.393Z,100642.82
2018-01-07T04:09:49.067Z,100639.25
2018-01-07T04:12:17.753Z,100636.31
2018-01-07T04:14:46.439Z,100639.86
2018-01-07T04:17:15.333Z,100635.33
2018-01-07T04:19:44.309Z,100633.87
2018-01-07T04:22:13.012Z,100640.93
2018-01-07T04:24:41.698Z,100638.07
2018-01-07T04:27:10.482Z,100642.48
2018-01-07T04:29:39.168Z,100642.83
2018-01-07T04:32:07.755Z,100651.03
2018-01-07T04:34:36.689Z,100657.94
2018-01-07T04:37:06.108Z,100660.23
2018-01-07T04:39:34.734Z,100667.13
2018-01-07T04:42:03.351Z,100667.44
2018-01-07T04:44:32.061Z,100673.05
2018-01-07T04:47:00.792Z,100675.78
2018-01-07T04:49:29.576Z,100685.84
2018-01-07T04:51:58.164Z,100691.48
2018-01-07T04:54:26.850Z,100689.92
2018-01-07T04:56:55.633Z,100691.19
2018-01-07T04:59:24.266Z,100693.00
2018-01-07T05:01:53.681Z,100693.08
2018-01-07T05:04:22.802Z,100697.16
2018-01-07T05:06:51.507Z,100700.74
2018-01-07T05:09:20.099Z,100705.98
2018-01-07T05:11:48.879Z,100700.59
2018-01-07T05:14:17.522Z,100702.51
2018-01-07T05:16:46.251Z,100710.32
2018-01-07T05:19:15.404Z,100697.16
2018-01-07T05:21:44.852Z,100698.64
2018-01-07T05:24:13.537Z,100693.08
2018-01-07T05:26:42.531Z,100698.30
2018-01-07T05:29:11.216Z,100693.20
2018-01-07T05:31:39.901Z,100695.34
2018-01-07T05:34:08.735Z,100693.17
2018-01-07T05:36:38.099Z,100696.41
2018-01-07T05:39:06.746Z,100695.05
2018-01-07T05:41:35.569Z,100704.50
2018-01-07T05:44:04.210Z,100706.28
2018-01-07T05:46:32.941Z,100712.11
2018-01-07T05:49:01.634Z,100715.32
2018-01-07T05:51:30.313Z,100727.59
2018-01-07T05:53:58.955Z,100722.38
2018-01-07T05:56:27.949Z,100725.42
2018-01-07T05:58:56.675Z,100722.98
2018-01-07T06:01:25.412Z,100720.52
2018-01-07T06:03:54.876Z,100725.22
2018-01-07T06:06:23.446Z,100734.11
2018-01-07T06:08:52.131Z,100736.95
2018-01-07T06:11:21.103Z,100741.54
2018-01-07T06:13:49.772Z,100738.84
2018-01-07T06:16:18.496Z,100744.35
2018-01-07T06:18:47.458Z,100744.44
2018-01-07T06:21:16.175Z,100740.41
2018-01-07T06:23:44.862Z,100738.44
2018-01-07T06:26:13.657Z,100733.80
2018-01-07T06:28:42.324Z,100744.08
2018-01-07T06:31:10.966Z,100751.66
2018-01-07T06:33:40.636Z,100751.63
2018-01-07T06:36:09.184Z,100754.73
2018-01-07T06:38:37.897Z,100760.33
2018-01-07T06:41:06.892Z,100763.95
2018-01-07T06:43:35.534Z,100771.31
2018-01-07T06:46:04.262Z,100784.64
2018-01-07T06:48:33.058Z,100781.28
2018-01-07T06:51:01.633Z,100787.13
2018-01-07T06:53:30.280Z,100794.28
2018-01-07T06:55:59.321Z,100799.97
2018-01-07T06:58:27.999Z,100804.48
2018-01-07T07:00:56.684Z,100808.46
2018-01-07T07:03:25.373Z,100814.39
2018-01-07T07:05:53.959Z,100804.52
2018-01-07T07:08:22.742Z,100807.16
2018-01-07T07:10:51.681Z,100817.09
2018-01-07T07:13:21.146Z,100827.57
2018-01-07T07:15:49.786Z,100829.66
2018-01-07T07:18:18.883Z,100829.90
2018-01-07T07:20:47.609Z,100819.19
2018-01-07T07:23:16.294Z,100820.64
2018-01-07T07:25:45.288Z,100831.29
2018-01-07T07:28:13.973Z,100831.58
2018-01-07T07:30:42.646Z,100828.80
2018-01-07T07:33:11.246Z,100820.77
2018-01-07T07:35:39.932Z,100816.03
2018-01-07T07:38:08.571Z,100820.30
2018-01-07T07:40:38.067Z,100816.80
2018-01-07T07:43:06.801Z,100821.59
2018-01-07T07:45:35.424Z,100820.97
2018-01-07T07:48:05.047Z,100831.09
2018-01-07T07:50:33.781Z,100838.38
2018-01-07T07:53:02.432Z,100832.75
2018-01-07T07:55:31.196Z,100835.03
2018-01-07T07:58:00.662Z,100839.38
2018-01-07T08:00:29.208Z,100840.41
2018-01-07T08:02:58.277Z,100840.31
2018-01-07T08:05:27.739Z,100840.06
2018-01-07T08:07:56.425Z,100843.77
2018-01-07T08:10:25.381Z,100835.11
2018-01-07T08:12:54.103Z,100838.98
2018-01-07T08:15:22.743Z,100835.96
2018-01-07T08:17:51.685Z,100837.63
2018-01-07T08:20:20.328Z,100841.19
2018-01-07T08:22:49.056Z,100850.95
2018-01-07T08:25:17.990Z,100849.22
2018-01-07T08:27:47.308Z,100851.73
2018-01-07T08:30:16.024Z,100852.55
2018-01-07T08:32:45.821Z,100860.61
2018-01-07T08:35:15.331Z,100863.66
2018-01-07T08:37:43.905Z,100865.70
2018-01-07T08:40:12.643Z,100870.48
2018-01-07T08:42:42.101Z,100882.33
2018-01-07T08:45:10.824Z,100880.30
2018-01-07T08:47:40.493Z,100884.55
2018-01-07T08:50:09.179Z,100873.43
2018-01-07T08:52:37.767Z,100870.55
2018-01-07T08:55:06.550Z,100868.39
2018-01-07T08:57:35.236Z,100861.95
2018-01-07T09:00:03.824Z,100859.89
2018-01-07T09:02:32.816Z,100856.09
2018-01-07T09:05:01.502Z,100851.41
2018-01-07T09:07:30.080Z,100849.42
2018-01-07T09:09:58.973Z,100848.87
2018-01-07T09:12:27.658Z,100845.40
2018-01-07T09:14:56.344Z,100842.73
2018-01-07T09:17:25.140Z,100839.98
2018-01-07T09:19:53.832Z,100839.34
2018-01-07T09:22:22.404Z,100841.20
2018-01-07T09:24:51.196Z,100835.60
2018-01-07T09:27:19.833Z,100830.53
2018-01-07T09:29:49.285Z,100825.12
2018-01-07T09:32:18.176Z,100819.48
2018-01-07T09:34:46.862Z,100811.65
2018-01-07T09:37:15.649Z,100810.30
2018-01-07T09:39:44.401Z,100810.16
2018-01-07T09:42:13.117Z,100801.88
2018-01-07T09:44:41.764Z,100802.95
2018-01-07T09:47:10.495Z,100799.58
2018-01-07T09:49:39.174Z,100792.65
2018-01-07T09:52:07.761Z,100782.50
2018-01-07T09:54:36.655Z,100786.14
2018-01-07T09:57:05.441Z,100790.38
2018-01-07T09:59:34.121Z,100784.16
2018-01-07T10:02:03.188Z,100789.58
2018-01-07T10:04:31.907Z,100780.66
2018-01-07T10:07:00.591Z,100777.05
2018-01-07T10:09:29.541Z,100777.22
2018-01-07T10:11:58.269Z,100770.75
2018-01-07T10:14:26.856Z,100769.03
2018-01-07T10:16:55.948Z,100760.30
2018-01-07T10:19:24.635Z,100756.39
2018-01-07T10:21:53.224Z,100753.73
2018-01-07T10:24:21.925Z,100751.09
2018-01-07T10:26:51.364Z,100747.17
2018-01-07T10:29:20.860Z,100740.16
2018-01-07T10:31:50.377Z,100737.77
2018-01-07T10:34:19.108Z,100736.20
2018-01-07T10:36:47.793Z,100735.55
2018-01-07T10:39:16.884Z,100734.80
2018-01-07T10:41:45.570Z,100735.13
2018-01-07T10:44:14.257Z,100736.33
2018-01-07T10:46:43.052Z,100739.08
2018-01-07T10:49:11.608Z,100735.73
2018-01-07T10:51:40.218Z,100729.92
2018-01-07T10:54:09.013Z,100727.47
2018-01-07T10:56:37.795Z,100731.89
2018-01-07T10:59:06.481Z,100728.52
2018-01-07T11:01:40.568Z,100730.80
2018-01-07T11:04:15.733Z,100729.53
2018-01-07T11:06:44.451Z,100727.15
2018-01-07T11:09:13.872Z,100725.08
2018-01-07T11:11:43.318Z,100722.37
2018-01-07T11:14:12.006Z,100726.16
2018-01-07T11:16:40.690Z,100719.97
2018-01-07T11:19:09.484Z,100724.94
2018-01-07T11:21:38.165Z,100722.94
2018-01-07T11:24:06.856Z,100723.73
2018-01-07T11:26:35.495Z,100726.83
2018-01-07T11:29:04.428Z,100735.66
2018-01-07T11:31:33.012Z,100725.97
2018-01-07T11:34:01.699Z,100728.47
2018-01-07T11:36:30.483Z,100724.72
2018-01-07T11:38:59.169Z,100732.41
2018-01-07T11:41:27.854Z,100731.98
2018-01-07T11:43:56.649Z,100731.41
2018-01-07T11:46:25.289Z,100728.46
2018-01-07T11:48:54.021Z,100734.92
2018-01-07T11:51:22.853Z,100732.31
2018-01-07T11:53:52.268Z,100727.30
2018-01-07T11:56:21.001Z,100729.08
2018-01-07T11:58:49.789Z,100721.70
2018-01-07T12:01:19.025Z,100727.55
2018-01-07T12:03:48.447Z,100728.50
2018-01-07T12:06:17.336Z,100730.17
2018-01-07T12:08:46.065Z,100726.13
2018-01-07T12:11:14.749Z,100722.33
2018-01-07T12:13:43.690Z,100729.88
2018-01-07T12:16:13.142Z,100730.64
2018-01-07T12:18:41.828Z,100730.03
2018-01-07T12:21:10.769Z,100728.82
2018-01-07T12:23:40.232Z,100725.86
2018-01-07T12:26:08.902Z,100721.69
2018-01-07T12:28:37.648Z,100723.42
2018-01-07T12:31:07.119Z,100731.27
2018-01-07T12:33:35.784Z,100726.50
2018-01-07T12:36:04.575Z,100725.63
2018-01-07T12:38:33.217Z,100726.22
2018-01-07T12:41:02.666Z,100731.65
2018-01-07T12:43:31.450Z,100728.80
2018-01-07T12:46:00.136Z,100733.39
2018-01-07T12:48:28.692Z,100734.24
2018-01-07T12:50:57.608Z,100736.91
2018-01-07T12:53:26.165Z,100738.37
2018-01-07T12:55:54.878Z,100738.52
2018-01-07T12:58:23.772Z,100739.97
2018-01-07T13:00:52.458Z,100745.78
2018-01-07T13:03:21.242Z,100746.37
2018-01-07T13:05:49.958Z,100754.69
2018-01-07T13:08:18.616Z,100756.91
2018-01-07T13:10:47.299Z,100766.17
2018-01-07T13:13:16.093Z,100768.86
2018-01-07T13:15:44.764Z,100769.96
2018-01-07T13:18:13.465Z,100764.05
2018-01-07T13:20:42.250Z,100766.95
2018-01-07T13:23:10.836Z,100760.73
2018-01-07T13:25:39.392Z,100762.91
2018-01-07T13:28:08.620Z,100766.66
2018-01-07T13:30:37.396Z,100763.13
2018-01-07T13:33:06.083Z,100767.94
2018-01-07T13:35:34.831Z,100767.97
2018-01-07T13:38:04.377Z,100777.98
2018-01-07T13:40:33.061Z,100773.21
2018-01-07T13:43:01.858Z,100776.36
2018-01-07T13:45:30.433Z,100774.74
2018-01-07T13:47:59.117Z,100779.25
2018-01-07T13:50:28.110Z,100771.87
2018-01-07T13:52:56.668Z,100777.56
2018-01-07T13:55:25.382Z,100783.73
2018-01-07T13:57:54.165Z,100785.69
2018-01-07T14:00:22.852Z,100778.58
2018-01-07T14:02:51.446Z,100791.42
2018-01-07T14:05:20.432Z,100788.42
2018-01-07T14:07:49.215Z,100789.05
2018-01-07T14:10:17.862Z,100786.91
2018-01-07T14:12:46.892Z,100783.66
2018-01-07T14:15:15.577Z,100786.72
2018-01-07T14:17:44.216Z,100786.02
2018-01-07T14:20:13.678Z,100787.08
2018-01-07T14:22:42.299Z,100790.63
2018-01-07T14:25:11.695Z,100786.19
2018-01-07T14:27:41.211Z,100790.78
2018-01-07T14:30:10.658Z,100794.88
2018-01-07T14:32:39.348Z,100796.44
2018-01-07T14:35:08.042Z,100804.89
2018-01-07T14:37:36.818Z,100800.98
2018-01-07T14:40:05.504Z,100807.25
2018-01-07T14:42:34.399Z,100806.27
2018-01-07T14:45:03.140Z,100807.77
2018-01-07T14:47:31.768Z,100811.05
2018-01-07T14:50:00.596Z,100810.90
2018-01-07T14:52:30.018Z,100808.28
2018-01-07T14:54:58.747Z,100803.41
2018-01-07T14:57:27.947Z,100810.58
2018-01-07T14:59:56.536Z,100813.49
2018-01-07T15:02:25.313Z,100811.19
2018-01-07T15:04:54.133Z,100819.42
2018-01-07T15:07:23.597Z,100812.85
2018-01-07T15:09:52.291Z,100807.22
2018-01-07T15:12:21.258Z,100805.61
2018-01-07T15:14:49.873Z,100811.55
2018-01-07T15:17:18.551Z,100818.65
2018-01-07T15:19:47.290Z,100821.81
2018-01-07T15:22:16.733Z,100822.02
2018-01-07T15:24:45.429Z,100828.55
2018-01-07T15:27:14.369Z,100830.81
2018-01-07T15:29:43.788Z,100828.92
2018-01-07T15:32:12.928Z,100835.75
2018-01-07T15:34:42.114Z,100835.48
2018-01-07T15:37:10.800Z,100838.65
2018-01-07T15:39:39.439Z,100839.64
2018-01-07T15:42:08.177Z,100837.63
2018-01-07T15:44:36.965Z,100842.18
2018-01-07T15:47:05.646Z,100842.32
2018-01-07T15:49:34.435Z,100849.80
2018-01-07T15:52:03.075Z,100851.63
2018-01-07T15:54:31.774Z,100856.15
2018-01-07T15:57:00.799Z,100868.04
2018-01-07T15:59:29.427Z,100870.28
2018-01-07T16:02:01.761Z,100877.98
2018-01-07T16:04:38.488Z,100886.68
2018-01-07T16:07:07.208Z,100884.63
2018-01-07T16:09:35.900Z,100888.83
2018-01-07T16:12:04.867Z,100894.01
2018-01-07T16:14:33.676Z,100901.27
2018-01-07T16:17:02.520Z,100900.99
2018-01-07T16:19:32.177Z,100902.24
2018-01-07T16:22:00.863Z,100909.59
2018-01-07T16:24:29.416Z,100910.05
2018-01-07T16:26:58.298Z,100910.36
2018-01-07T16:29:27.019Z,100920.98
2018-01-07T16:31:55.609Z,100927.77
2018-01-07T16:34:24.494Z,100925.85
2018-01-07T16:36:53.184Z,100923.33
2018-01-07T16:39:21.810Z,100929.09
2018-01-07T16:41:51.293Z,100935.33
2018-01-07T16:44:19.859Z,100944.73
2018-01-07T16:46:48.488Z,100947.34
2018-01-07T16:49:18.028Z,100948.77
2018-01-07T16:51:46.633Z,100948.70
2018-01-07T16:54:15.411Z,100954.70
2018-01-07T16:56:45.535Z,100957.48
2018-01-07T16:59:14.156Z,100956.27
2018-01-07T17:01:43.574Z,100965.00
2018-01-07T17:04:12.413Z,100970.31
2018-01-07T17:06:41.099Z,100969.62
2018-01-07T17:09:09.785Z,100971.13
2018-01-07T17:11:38.722Z,100962.70
2018-01-07T17:14:08.113Z,100973.36
2018-01-07T17:16:37.575Z,100969.55
2018-01-07T17:19:06.326Z,100968.52
2018-01-07T17:21:35.773Z,100972.63
2018-01-07T17:24:04.510Z,100970.66
2018-01-07T17:26:33.301Z,100975.88
2018-01-07T17:29:02.747Z,100980.73
2018-01-07T17:31:31.336Z,100976.77
2018-01-07T17:34:00.328Z,100974.30
2018-01-07T17:36:29.012Z,100974.05
2018-01-07T17:38:57.592Z,100978.50
2018-01-07T17:41:26.483Z,100979.78
2018-01-07T17:43:55.552Z,100987.19
2018-01-07T17:46:24.259Z,100984.88
2018-01-07T17:48:53.056Z,100988.63
2018-01-07T17:51:21.750Z,101000.16
2018-01-07T17:53:50.427Z,100994.12
2018-01-07T17:56:19.266Z,100991.63
2018-01-07T17:58:47.995Z,101005.20
2018-01-07T18:01:16.680Z,101013.39
2018-01-07T18:03:45.475Z,101009.97
2018-01-07T18:06:14.161Z,101009.59
2018-01-07T18:08:42.836Z,101012.00
2018-01-07T18:11:11.632Z,101027.77
2018-01-07T18:13:40.318Z,101030.35
2018-01-07T18:16:08.904Z,101028.34
2018-01-07T18:18:37.787Z,101026.50
2018-01-07T18:21:06.419Z,101029.77
2018-01-07T18:23:35.885Z,101030.91
2018-01-07T18:26:04.766Z,101031.05
2018-01-07T18:28:33.450Z,101025.59
2018-01-07T18:31:02.137Z,101023.50
2018-01-07T18:33:30.831Z,101026.64
2018-01-07T18:35:59.478Z,101031.93
2018-01-07T18:38:28.194Z,101024.38
2018-01-07T18:40:56.985Z,101026.92
2018-01-07T18:43:25.569Z,101023.97
2018-01-07T18:45:54.152Z,101023.39
2018-01-07T18:48:23.047Z,101034.19
2018-01-07T18:50:51.834Z,101041.23
2018-01-07T18:53:20.401Z,101040.09
2018-01-07T18:55:49.203Z,101034.73
2018-01-07T18:58:17.889Z,101040.69
2018-01-07T19:00:46.577Z,101047.59
2018-01-07T19:03:15.468Z,101045.79
2018-01-07T19:05:44.025Z,101048.97
2018-01-07T19:08:12.683Z,101064.23
2018-01-07T19:10:41.416Z,101075.05
2018-01-07T19:13:10.004Z,101085.63
2018-01-07T19:15:38.589Z,101087.00
2018-01-07T19:18:07.728Z,101089.91
2018-01-07T19:20:37.143Z,101097.28
2018-01-07T19:23:05.767Z,101095.03
2018-01-07T19:25:34.632Z,101099.05
2018-01-07T19:28:03.348Z,101104.42
2018-01-07T19:30:32.033Z,101114.25
2018-01-07T19:33:01.182Z,101124.39
2018-01-07T19:35:30.500Z,101121.97
2018-01-07T19:37:59.094Z,101125.95
2018-01-07T19:40:27.862Z,101125.41
2018-01-07T19:42:56.420Z,101117.37
2018-01-07T19:45:25.846Z,101114.67
2018-01-07T19:47:54.883Z,101113.48
2018-01-07T19:50:23.460Z,101113.33
2018-01-07T19:52:52.145Z,101122.15
2018-01-07T19:55:21.347Z,101124.63
2018-01-07T19:57:49.989Z,101127.39
2018-01-07T20:00:18.705Z,101131.63
2018-01-07T20:02:47.611Z,101127.52
2018-01-07T20:05:16.237Z,101135.52
2018-01-07T20:07:45.633Z,101138.84
2018-01-07T20:10:15.252Z,101147.48
2018-01-07T20:12:44.703Z,101143.09
2018-01-07T20:15:13.387Z,101141.52
2018-01-07T20:17:42.076Z,101141.63
2018-01-07T20:20:10.731Z,101135.16
2018-01-07T20:22:39.415Z,101137.11
2018-01-07T20:25:08.408Z,101138.73
2018-01-07T20:27:37.123Z,101135.05
2018-01-07T20:30:05.769Z,101138.97
2018-01-07T20:32:34.761Z,101140.48
2018-01-07T20:35:03.491Z,101139.77
2018-01-07T20:37:32.081Z,101143.60
2018-01-07T20:40:00.789Z,101148.63
2018-01-07T20:42:30.205Z,101163.23
2018-01-07T20:44:58.897Z,101166.34
2018-01-07T20:47:28.417Z,101169.13
2018-01-07T20:49:57.139Z,101166.99
2018-01-07T20:52:25.933Z,101165.92
2018-01-07T20:54:54.671Z,101162.78
2018-01-07T20:57:24.120Z,101161.98
2018-01-07T20:59:52.804Z,101164.65
2018-01-07T21:02:21.649Z,101180.31
2018-01-07T21:04:51.096Z,101182.64
2018-01-07T21:07:19.990Z,101182.70
2018-01-07T21:09:48.983Z,101185.03
2018-01-07T21:12:17.768Z,101189.23
2018-01-07T21:14:46.563Z,101185.78
2018-01-07T21:17:15.304Z,101181.27
2018-01-07T21:19:44.032Z,101189.25
2018-01-07T21:22:12.719Z,101190.16
2018-01-07T21:24:41.714Z,101191.69
2018-01-07T21:27:10.399Z,101196.01
2018-01-07T21:29:39.043Z,101195.98
2018-01-07T21:32:07.772Z,101196.74
2018-01-07T21:34:36.455Z,101201.58
2018-01-07T21:37:05.142Z,101195.02
2018-01-07T21:39:34.115Z,101184.30
2018-01-07T21:42:02.782Z,101182.49
2018-01-07T21:44:31.506Z,101179.08
2018-01-07T21:47:00.442Z,101179.27
2018-01-07T21:49:29.862Z,101180.30
2018-01-07T21:51:58.583Z,101191.37
2018-01-07T21:54:27.378Z,101196.81
2018-01-07T21:56:55.956Z,101192.62
2018-01-07T21:59:24.750Z,101203.77
2018-01-07T22:02:11.494Z,101208.02
2018-01-07T22:04:55.705Z,101204.16
2018-01-07T22:07:24.908Z,101205.56
2018-01-07T22:09:53.547Z,101200.45
2018-01-07T22:12:22.277Z,101195.63
2018-01-07T22:14:50.964Z,101193.09
2018-01-07T22:17:19.650Z,101197.27
2018-01-07T22:19:48.421Z,101197.72
2018-01-07T22:22:17.189Z,101193.52
2018-01-07T22:24:45.904Z,101197.36
2018-01-07T22:27:14.590Z,101192.15
2018-01-07T22:29:43.542Z,101187.38
2018-01-07T22:32:12.269Z,101191.33
2018-01-07T22:34:41.064Z,101191.68
2018-01-07T22:37:09.750Z,101192.44
2018-01-07T22:39:38.435Z,101194.23
2018-01-07T22:42:07.281Z,101188.34
2018-01-07T22:44:35.974Z,101193.59
2018-01-07T22:47:04.696Z,101192.42
2018-01-07T22:49:33.333Z,101190.59
2018-01-07T22:52:02.027Z,101177.73
2018-01-07T22:54:30.749Z,101176.92
2018-01-07T22:56:59.387Z,101193.92
2018-01-07T22:59:28.121Z,101188.53
2018-01-07T23:01:56.808Z,101191.69
2018-01-07T23:04:25.490Z,101191.25
2018-01-07T23:06:54.458Z,101188.48
2018-01-07T23:09:23.170Z,101186.58
2018-01-07T23:11:51.856Z,101194.46
2018-01-07T23:14:20.599Z,101200.30
2018-01-07T23:16:49.951Z,101204.28
2018-01-07T23:19:18.636Z,101204.09
2018-01-07T23:21:47.444Z,101203.70
2018-01-07T23:24:16.205Z,101201.91
2018-01-07T23:26:44.892Z,101198.90
2018-01-07T23:29:13.842Z,101197.53
2018-01-07T23:31:42.571Z,101193.42
2018-01-07T23:34:11.156Z,101197.87
2018-01-07T23:36:39.895Z,101198.75
2018-01-07T23:39:08.588Z,101197.27
2018-01-07T23:41:37.314Z,101200.56
2018-01-07T23:44:07.130Z,101201.44
2018-01-07T23:46:35.915Z,101203.68
2018-01-07T23:49:04.600Z,101192.34
2018-01-07T23:51:33.752Z,101190.67
2018-01-07T23:54:03.205Z,101189.34
2018-01-07T23:56:31.885Z,101197.59
2018-01-07T23:59:00.880Z,101202.77
